createdAt,value
2023-02-08T00:01:22.230Z,103497.97
2023-02-08T00:03:50.603Z,103495.28
2023-02-08T00:06:19.524Z,103489.88
2023-02-08T00:08:47.871Z,103490.78
2023-02-08T00:11:17.105Z,103492.59
2023-02-08T00:13:44.965Z,103490.78
2023-02-08T00:16:14.487Z,103494.38
2023-02-08T00:18:42.876Z,103484.50
2023-02-08T00:21:11.963Z,103491.69
2023-02-08T00:23:40.236Z,103484.50
2023-02-08T00:26:09.023Z,103490.78
2023-02-08T00:28:38.422Z,103490.78
2023-02-08T00:31:06.614Z,103487.19
2023-02-08T00:33:35.905Z,103483.59
2023-02-08T00:36:06.017Z,103476.41
2023-02-08T00:38:33.936Z,103474.66
2023-02-08T00:41:01.868Z,103467.47
2023-02-08T00:43:29.847Z,103467.47
2023-02-08T00:46:02.114Z,103471.97
2023-02-08T00:48:30.189Z,103468.38
2023-02-08T00:50:59.633Z,103466.56
2023-02-08T00:53:30.096Z,103462.09
2023-02-08T00:55:57.972Z,103466.63
2023-02-08T00:58:29.347Z,103472.03
2023-02-08T01:00:57.149Z,103472.03
2023-02-08T01:03:26.312Z,103469.28
2023-02-08T01:05:54.650Z,103475.59
2023-02-08T01:08:22.492Z,103470.22
2023-02-08T01:10:50.616Z,103465.72
2023-02-08T01:13:18.400Z,103467.53
2023-02-08T01:15:46.369Z,103463.03
2023-02-08T01:18:14.269Z,103460.34
2023-02-08T01:20:44.328Z,103465.75
2023-02-08T01:23:12.226Z,103464.84
2023-02-08T01:25:40.522Z,103468.47
2023-02-08T01:28:08.442Z,103464.88
2023-02-08T01:30:36.817Z,103467.56
2023-02-08T01:33:04.736Z,103453.19
2023-02-08T01:35:32.711Z,103468.47
2023-02-08T01:38:02.015Z,103459.50
2023-02-08T01:40:29.855Z,103470.28
2023-02-08T01:42:57.867Z,103461.28
2023-02-08T01:45:29.888Z,103463.09
2023-02-08T01:48:19.042Z,103464.91
2023-02-08T01:50:53.384Z,103465.81
2023-02-08T01:53:24.063Z,103458.63
2023-02-08T01:55:55.849Z,103452.34
2023-02-08T01:58:28.242Z,103463.13
2023-02-08T02:00:56.223Z,103447.00
2023-02-08T02:03:25.622Z,103457.75
2023-02-08T02:05:58.558Z,103449.69
2023-02-08T02:08:29.881Z,103444.31
2023-02-08T02:10:57.714Z,103447.00
2023-02-08T02:13:28.699Z,103447.00
2023-02-08T02:15:57.944Z,103437.16
2023-02-08T02:18:28.358Z,103438.06
2023-02-08T02:21:10.747Z,103434.47
2023-02-08T02:24:28.393Z,103438.09
2023-02-08T02:27:23.362Z,103441.69
2023-02-08T02:30:30.933Z,103444.41
2023-02-08T02:33:20.125Z,103448.00
2023-02-08T02:35:57.856Z,103444.41
2023-02-08T02:38:41.937Z,103439.00
2023-02-08T02:41:39.840Z,103438.16
2023-02-08T02:44:13.349Z,103433.66
2023-02-08T02:46:47.752Z,103434.56
2023-02-08T02:49:19.252Z,103436.44
2023-02-08T02:51:52.126Z,103419.34
2023-02-08T02:54:23.838Z,103426.47
2023-02-08T02:56:55.935Z,103427.38
2023-02-08T02:59:24.218Z,103422.91
2023-02-08T03:01:55.753Z,103417.50
2023-02-08T03:04:54.216Z,103412.13
2023-02-08T03:07:43.786Z,103415.72
2023-02-08T03:10:27.959Z,103419.34
2023-02-08T03:13:02.298Z,103415.75
2023-02-08T03:15:39.171Z,103421.13
2023-02-08T03:18:21.273Z,103417.53
2023-02-08T03:20:55.529Z,103419.31
2023-02-08T03:23:29.086Z,103417.53
2023-02-08T03:26:05.899Z,103416.63
2023-02-08T03:28:41.595Z,103414.88
2023-02-08T03:31:16.173Z,103414.88
2023-02-08T03:33:50.593Z,103419.34
2023-02-08T03:36:25.671Z,103424.75
2023-02-08T03:38:55.861Z,103431.03
2023-02-08T03:41:36.062Z,103429.22
2023-02-08T03:44:10.611Z,103427.44
2023-02-08T03:46:42.548Z,103430.13
2023-02-08T03:49:16.207Z,103431.03
2023-02-08T03:51:47.124Z,103429.22
2023-02-08T03:54:20.278Z,103434.59
2023-02-08T03:56:53.496Z,103433.69
2023-02-08T03:59:25.996Z,103432.78
2023-02-08T04:01:58.845Z,103433.69
2023-02-08T04:04:30.330Z,103438.19
2023-02-08T04:06:59.598Z,103428.31
2023-02-08T04:09:27.426Z,103436.38
2023-02-08T04:11:55.271Z,103433.66
2023-02-08T04:14:23.176Z,103429.19
2023-02-08T04:16:51.001Z,103431.88
2023-02-08T04:19:18.759Z,103429.16
2023-02-08T04:21:46.503Z,103426.47
2023-02-08T04:24:15.615Z,103439.06
2023-02-08T04:26:43.443Z,103430.97
2023-02-08T04:29:11.213Z,103435.47
2023-02-08T04:31:39.025Z,103431.88
2023-02-08T04:34:06.836Z,103439.94
2023-02-08T04:36:34.719Z,103433.66
2023-02-08T04:39:02.451Z,103439.94
2023-02-08T04:41:31.877Z,103438.16
2023-02-08T04:43:59.658Z,103442.66
2023-02-08T04:46:27.485Z,103444.47
2023-02-08T04:48:56.202Z,103444.47
2023-02-08T04:51:24.609Z,103436.38
2023-02-08T04:53:52.408Z,103445.34
2023-02-08T04:56:20.173Z,103441.75
2023-02-08T04:58:49.438Z,103439.97
2023-02-08T05:01:17.428Z,103435.50
2023-02-08T05:03:45.475Z,103432.81
2023-02-08T05:06:13.386Z,103433.72
2023-02-08T05:08:41.167Z,103427.44
2023-02-08T05:11:08.968Z,103440.91
2023-02-08T05:13:36.709Z,103436.41
2023-02-08T05:16:06.338Z,103440.91
2023-02-08T05:18:34.070Z,103440.91
2023-02-08T05:21:03.913Z,103435.50
2023-02-08T05:23:32.123Z,103439.09
2023-02-08T05:26:00.420Z,103429.22
2023-02-08T05:28:28.474Z,103433.72
2023-02-08T05:30:56.418Z,103443.59
2023-02-08T05:33:25.628Z,103431.91
2023-02-08T05:35:53.364Z,103440.00
2023-02-08T05:38:21.200Z,103427.47
2023-02-08T05:40:48.968Z,103443.63
2023-02-08T05:43:16.757Z,103436.44
2023-02-08T05:45:44.555Z,103436.44
2023-02-08T05:48:12.540Z,103434.63
2023-02-08T05:50:41.848Z,103440.91
2023-02-08T05:53:11.097Z,103434.66
2023-02-08T05:55:38.894Z,103437.34
2023-02-08T05:58:06.604Z,103434.66
2023-02-08T06:00:34.340Z,103439.16
2023-02-08T06:03:02.074Z,103435.56
2023-02-08T06:05:29.839Z,103442.75
2023-02-08T06:07:58.970Z,103435.56
2023-02-08T06:10:26.984Z,103433.78
2023-02-08T06:12:54.718Z,103438.25
2023-02-08T06:15:22.461Z,103431.97
2023-02-08T06:17:50.188Z,103440.94
2023-02-08T06:20:18.558Z,103445.44
2023-02-08T06:22:46.345Z,103450.81
2023-02-08T06:25:15.506Z,103446.31
2023-02-08T06:27:43.232Z,103449.91
2023-02-08T06:30:12.333Z,103447.22
2023-02-08T06:32:40.363Z,103452.59
2023-02-08T06:35:09.242Z,103440.97
2023-02-08T06:37:37.244Z,103447.25
2023-02-08T06:40:05.827Z,103443.66
2023-02-08T06:42:34.895Z,103444.56
2023-02-08T06:45:02.693Z,103442.75
2023-02-08T06:47:30.540Z,103447.25
2023-02-08T06:49:58.310Z,103441.84
2023-02-08T06:52:26.065Z,103437.38
2023-02-08T06:54:54.005Z,103441.84
2023-02-08T06:57:21.697Z,103444.56
2023-02-08T06:59:50.875Z,103432.91
2023-02-08T07:02:20.690Z,103432.00
2023-02-08T07:04:48.770Z,103430.22
2023-02-08T07:07:18.086Z,103432.00
2023-02-08T07:09:46.204Z,103432.00
2023-02-08T07:12:14.224Z,103432.91
2023-02-08T07:14:43.730Z,103432.03
2023-02-08T07:17:13.829Z,103434.72
2023-02-08T07:19:41.880Z,103432.91
2023-02-08T07:22:09.805Z,103435.59
2023-02-08T07:24:38.232Z,103437.38
2023-02-08T07:27:07.676Z,103435.59
2023-02-08T07:29:35.824Z,103430.22
2023-02-08T07:32:05.387Z,103425.72
2023-02-08T07:34:37.266Z,103423.03
2023-02-08T07:37:05.507Z,103418.56
2023-02-08T07:39:33.453Z,103418.56
2023-02-08T07:42:01.563Z,103411.34
2023-02-08T07:44:35.005Z,103406.88
2023-02-08T07:47:02.989Z,103415.84
2023-02-08T07:49:30.916Z,103413.16
2023-02-08T07:52:00.371Z,103410.44
2023-02-08T07:54:28.412Z,103415.81
2023-02-08T07:56:56.124Z,103416.72
2023-02-08T07:59:24.238Z,103417.63
2023-02-08T08:01:52.011Z,103414.03
2023-02-08T08:04:22.046Z,103412.22
2023-02-08T08:06:51.447Z,103411.31
2023-02-08T08:09:20.796Z,103417.59
2023-02-08T08:11:48.536Z,103415.81
2023-02-08T08:14:16.288Z,103420.28
2023-02-08T08:16:44.108Z,103422.09
2023-02-08T08:19:11.861Z,103423.91
2023-02-08T08:21:39.697Z,103426.56
2023-02-08T08:24:07.921Z,103427.44
2023-02-08T08:26:37.041Z,103431.94
2023-02-08T08:29:04.933Z,103426.56
2023-02-08T08:31:32.753Z,103429.22
2023-02-08T08:34:00.570Z,103428.34
2023-02-08T08:36:28.545Z,103426.50
2023-02-08T08:38:56.260Z,103416.63
2023-02-08T08:41:27.096Z,103419.31
2023-02-08T08:43:56.504Z,103422.03
2023-02-08T08:46:24.299Z,103409.41
2023-02-08T08:48:52.702Z,103409.44
2023-02-08T08:51:20.562Z,103409.38
2023-02-08T08:53:48.463Z,103403.09
2023-02-08T08:56:16.306Z,103402.16
2023-02-08T08:58:44.503Z,103403.06
2023-02-08T09:01:14.368Z,103396.75
2023-02-08T09:03:42.215Z,103400.28
2023-02-08T09:06:10.197Z,103400.25
2023-02-08T09:08:38.092Z,103399.28
2023-02-08T09:11:07.637Z,103401.03
2023-02-08T09:13:36.202Z,103401.91
2023-02-08T09:16:08.153Z,103410.78
2023-02-08T09:18:37.643Z,103403.53
2023-02-08T09:21:07.303Z,103399.81
2023-02-08T09:23:35.128Z,103403.31
2023-02-08T09:26:03.684Z,103405.88
2023-02-08T09:28:31.688Z,103400.38
2023-02-08T09:31:01.732Z,103408.34
2023-02-08T09:33:29.696Z,103400.13
2023-02-08T09:35:58.911Z,103397.28
2023-02-08T09:38:26.948Z,103391.78
2023-02-08T09:41:03.445Z,103392.53
2023-02-08T09:43:44.501Z,103392.41
2023-02-08T09:46:17.742Z,103384.13
2023-02-08T09:48:46.738Z,103387.59
2023-02-08T09:51:26.644Z,103381.09
2023-02-08T09:54:00.100Z,103381.84
2023-02-08T09:56:31.286Z,103389.75
2023-02-08T09:59:01.667Z,103389.56
2023-02-08T10:01:32.324Z,103389.34
2023-02-08T10:04:07.104Z,103394.56
2023-02-08T10:06:36.751Z,103402.47
2023-02-08T10:09:09.262Z,103397.78
2023-02-08T10:11:48.480Z,103384.06
2023-02-08T10:14:31.323Z,103391.88
2023-02-08T10:17:11.090Z,103389.00
2023-02-08T10:19:54.999Z,103384.16
2023-02-08T10:22:34.650Z,103393.84
2023-02-08T10:25:17.638Z,103392.69
2023-02-08T10:28:01.685Z,103392.50
2023-02-08T10:30:38.307Z,103394.94
2023-02-08T10:33:14.011Z,103391.13
2023-02-08T10:35:46.262Z,103395.41
2023-02-08T10:38:37.162Z,103401.56
2023-02-08T10:41:19.603Z,103398.59
2023-02-08T10:43:52.843Z,103393.00
2023-02-08T10:46:23.844Z,103384.34
2023-02-08T10:49:05.228Z,103389.03
2023-02-08T10:51:33.120Z,103392.47
2023-02-08T10:54:02.526Z,103378.69
2023-02-08T10:56:41.999Z,103376.69
2023-02-08T10:59:17.290Z,103381.03
2023-02-08T11:01:47.251Z,103384.56
2023-02-08T11:04:16.212Z,103383.53
2023-02-08T11:06:45.505Z,103377.09
2023-02-08T11:09:26.991Z,103373.38
2023-02-08T11:11:55.861Z,103370.66
2023-02-08T11:14:40.945Z,103362.41
2023-02-08T11:17:26.996Z,103364.19
2023-02-08T11:19:55.182Z,103352.41
2023-02-08T11:22:25.810Z,103352.25
2023-02-08T11:25:00.395Z,103350.38
2023-02-08T11:27:33.937Z,103346.56
2023-02-08T11:30:21.322Z,103343.78
2023-02-08T11:32:52.883Z,103337.28
2023-02-08T11:35:23.636Z,103337.09
2023-02-08T11:37:53.608Z,103333.28
2023-02-08T11:40:25.644Z,103317.75
2023-02-08T11:42:53.946Z,103322.22
2023-02-08T11:45:24.175Z,103319.31
2023-02-08T11:47:53.012Z,103324.56
2023-02-08T11:50:27.281Z,103320.75
2023-02-08T11:52:59.700Z,103317.00
2023-02-08T11:55:31.265Z,103321.38
2023-02-08T11:58:02.378Z,103311.19
2023-02-08T12:00:34.049Z,103307.38
2023-02-08T12:03:05.741Z,103298.19
2023-02-08T12:05:41.574Z,103295.22
2023-02-08T12:08:20.032Z,103293.28
2023-02-08T12:11:12.297Z,103297.63
2023-02-08T12:14:17.519Z,103293.03
2023-02-08T12:17:02.825Z,103297.31
2023-02-08T12:19:47.138Z,103288.03
2023-02-08T12:22:21.861Z,103286.13
2023-02-08T12:24:54.550Z,103285.00
2023-02-08T12:27:37.598Z,103290.28
2023-02-08T12:30:14.407Z,103292.03
2023-02-08T12:33:29.220Z,103283.81
2023-02-08T12:36:27.687Z,103272.94
2023-02-08T12:39:26.474Z,103274.53
2023-02-08T12:42:17.399Z,103278.19
2023-02-08T12:45:03.783Z,103272.66
2023-02-08T12:47:58.238Z,103269.88
2023-02-08T12:50:36.317Z,103264.44
2023-02-08T12:53:09.458Z,103261.66
2023-02-08T12:55:40.096Z,103251.66
2023-02-08T12:58:23.486Z,103244.31
2023-02-08T13:00:54.682Z,103237.97
2023-02-08T13:03:33.417Z,103238.78
2023-02-08T13:06:05.243Z,103240.56
2023-02-08T13:08:40.686Z,103240.50
2023-02-08T13:11:20.106Z,103232.16
2023-02-08T13:13:56.763Z,103227.50
2023-02-08T13:16:30.084Z,103229.19
2023-02-08T13:19:12.030Z,103217.38
2023-02-08T13:21:43.702Z,103223.69
2023-02-08T13:24:28.202Z,103221.81
2023-02-08T13:26:56.035Z,103209.25
2023-02-08T13:29:26.578Z,103203.78
2023-02-08T13:32:01.328Z,103195.72
2023-02-08T13:34:34.854Z,103195.72
2023-02-08T13:37:13.541Z,103184.88
2023-02-08T13:39:49.259Z,103191.31
2023-02-08T13:42:23.662Z,103188.63
2023-02-08T13:44:55.077Z,103175.19
2023-02-08T13:47:27.653Z,103175.25
2023-02-08T13:50:00.003Z,103169.09
2023-02-08T13:52:52.965Z,103175.66
2023-02-08T13:55:46.012Z,103166.78
2023-02-08T13:59:05.016Z,103151.69
2023-02-08T14:01:35.460Z,103158.06
2023-02-08T14:04:32.831Z,103153.78
2023-02-08T14:07:06.294Z,103155.63
2023-02-08T14:09:47.153Z,103142.19
2023-02-08T14:12:23.509Z,103138.69
2023-02-08T14:15:09.273Z,103140.72
2023-02-08T14:17:37.473Z,103132.78
2023-02-08T14:20:08.690Z,103129.22
2023-02-08T14:22:40.105Z,103131.28
2023-02-08T14:25:18.110Z,103125.94
2023-02-08T14:27:53.164Z,103128.69
2023-02-08T14:30:28.512Z,103126.16
2023-02-08T14:33:17.293Z,103120.00
2023-02-08T14:35:56.310Z,103112.78
2023-02-08T14:38:52.059Z,103112.94
2023-02-08T14:41:46.157Z,103102.25
2023-02-08T14:44:53.760Z,103103.19
2023-02-08T14:48:07.882Z,103102.34
2023-02-08T14:50:42.541Z,103091.53
2023-02-08T14:53:41.423Z,103095.25
2023-02-08T14:56:19.886Z,103090.69
2023-02-08T14:58:51.792Z,103096.19
2023-02-08T15:01:21.676Z,103098.91
2023-02-08T15:03:52.046Z,103086.25
2023-02-08T15:07:01.642Z,103083.66
2023-02-08T15:09:33.408Z,103079.19
2023-02-08T15:12:03.815Z,103071.13
2023-02-08T15:14:35.027Z,103072.03
2023-02-08T15:17:03.429Z,103069.34
2023-02-08T15:19:35.096Z,103070.22
2023-02-08T15:22:20.408Z,103066.63
2023-02-08T15:24:53.747Z,103066.69
2023-02-08T15:27:23.554Z,103056.75
2023-02-08T15:29:51.751Z,103064.13
2023-02-08T15:32:23.436Z,103055.97
2023-02-08T15:34:55.315Z,103054.13
2023-02-08T15:37:24.111Z,103050.56
2023-02-08T15:39:55.828Z,103056.06
2023-02-08T15:42:26.226Z,103057.97
2023-02-08T15:44:54.085Z,103056.19
2023-02-08T15:47:27.766Z,103052.53
2023-02-08T15:49:56.577Z,103052.56
2023-02-08T15:52:26.764Z,103054.41
2023-02-08T15:54:55.935Z,103050.78
2023-02-08T15:57:33.836Z,103041.78
2023-02-08T16:00:03.800Z,103041.84
2023-02-08T16:02:35.787Z,103041.06
2023-02-08T16:05:12.466Z,103039.25
2023-02-08T16:07:45.774Z,103026.59
2023-02-08T16:10:26.691Z,103017.53
2023-02-08T16:12:57.323Z,103027.56
2023-02-08T16:15:41.101Z,103021.25
2023-02-08T16:18:33.920Z,103018.66
2023-02-08T16:21:04.108Z,103018.75
2023-02-08T16:23:33.993Z,103010.59
2023-02-08T16:26:19.113Z,103014.19
2023-02-08T16:28:53.890Z,103017.91
2023-02-08T16:31:24.952Z,103018.00
2023-02-08T16:34:00.571Z,103010.81
2023-02-08T16:36:34.200Z,103009.06
2023-02-08T16:39:46.921Z,103019.13
2023-02-08T16:42:30.524Z,103012.00
2023-02-08T16:45:14.539Z,103010.25
2023-02-08T16:47:44.858Z,103007.69
2023-02-08T16:50:14.963Z,103008.59
2023-02-08T16:52:43.172Z,103005.97
2023-02-08T16:55:18.999Z,103009.56
2023-02-08T16:57:50.176Z,103009.69
2023-02-08T17:00:21.763Z,103008.00
2023-02-08T17:02:50.198Z,102995.44
2023-02-08T17:05:19.890Z,103003.63
2023-02-08T17:07:47.787Z,103004.72
2023-02-08T17:10:22.080Z,102997.50
2023-02-08T17:12:51.530Z,102992.19
2023-02-08T17:15:20.922Z,102991.38
2023-02-08T17:17:49.162Z,102986.94
2023-02-08T17:20:23.833Z,102986.03
2023-02-08T17:22:53.230Z,102980.72
2023-02-08T17:25:23.404Z,102981.66
2023-02-08T17:27:55.214Z,102988.97
2023-02-08T17:30:26.015Z,102984.53
2023-02-08T17:32:56.121Z,102972.88
2023-02-08T17:35:24.181Z,102976.63
2023-02-08T17:37:53.673Z,102989.34
2023-02-08T17:40:23.740Z,102976.75
2023-02-08T17:42:55.039Z,102974.13
2023-02-08T17:45:22.838Z,102981.50
2023-02-08T17:47:50.636Z,102975.22
2023-02-08T17:50:19.485Z,102972.53
2023-02-08T17:52:48.311Z,102972.66
2023-02-08T17:55:18.033Z,102967.28
2023-02-08T17:57:46.774Z,102967.31
2023-02-08T18:00:18.568Z,102970.03
2023-02-08T18:02:47.797Z,102970.94
2023-02-08T18:05:16.001Z,102960.09
2023-02-08T18:07:43.766Z,102959.16
2023-02-08T18:10:13.612Z,102959.13
2023-02-08T18:12:41.771Z,102961.84
2023-02-08T18:15:13.032Z,102961.81
2023-02-08T18:17:43.246Z,102953.72
2023-02-08T18:20:14.130Z,102951.88
2023-02-08T18:22:42.821Z,102956.50
2023-02-08T18:25:11.340Z,102961.97
2023-02-08T18:27:39.710Z,102961.16
2023-02-08T18:30:08.499Z,102957.63
2023-02-08T18:32:36.819Z,102967.63
2023-02-08T18:35:07.357Z,102959.59
2023-02-08T18:37:35.818Z,102961.53
2023-02-08T18:40:04.176Z,102962.56
2023-02-08T18:42:33.707Z,102970.75
2023-02-08T18:45:02.953Z,102968.19
2023-02-08T18:47:30.826Z,102971.91
2023-02-08T18:49:58.740Z,102963.03
2023-02-08T18:52:28.856Z,102960.34
2023-02-08T18:54:57.858Z,102966.84
2023-02-08T18:57:25.726Z,102962.44
2023-02-08T18:59:54.220Z,102966.09
2023-02-08T19:02:26.328Z,102959.91
2023-02-08T19:04:54.349Z,102949.22
2023-02-08T19:07:22.104Z,102952.88
2023-02-08T19:09:51.400Z,102957.44
2023-02-08T19:12:20.442Z,102945.84
2023-02-08T19:14:50.481Z,102950.38
2023-02-08T19:17:18.819Z,102952.31
2023-02-08T19:19:46.638Z,102945.09
2023-02-08T19:22:14.745Z,102938.00
2023-02-08T19:24:42.519Z,102938.06
2023-02-08T19:27:11.601Z,102942.63
2023-02-08T19:29:39.561Z,102939.13
2023-02-08T19:32:08.172Z,102935.56
2023-02-08T19:34:36.079Z,102931.19
2023-02-08T19:37:03.859Z,102933.03
2023-02-08T19:39:31.744Z,102921.38
2023-02-08T19:41:59.630Z,102923.31
2023-02-08T19:44:30.670Z,102917.06
2023-02-08T19:46:59.505Z,102918.09
2023-02-08T19:49:28.399Z,102933.47
2023-02-08T19:51:57.302Z,102929.94
2023-02-08T19:54:25.442Z,102933.66
2023-02-08T19:56:54.701Z,102926.50
2023-02-08T19:59:24.755Z,102931.97
2023-02-08T20:01:54.704Z,102935.69
2023-02-08T20:04:23.335Z,102935.72
2023-02-08T20:06:52.845Z,102927.66
2023-02-08T20:09:21.063Z,102930.50
2023-02-08T20:11:56.731Z,102935.06
2023-02-08T20:14:24.971Z,102937.84
2023-02-08T20:16:54.141Z,102947.81
2023-02-08T20:19:21.998Z,102945.16
2023-02-08T20:21:50.088Z,102939.78
2023-02-08T20:24:18.778Z,102929.88
2023-02-08T20:26:48.273Z,102931.72
2023-02-08T20:29:16.795Z,102934.44
2023-02-08T20:31:47.808Z,102933.56
2023-02-08T20:34:18.930Z,102932.72
2023-02-08T20:37:04.464Z,102933.66
2023-02-08T20:39:34.311Z,102930.13
2023-02-08T20:42:02.083Z,102936.38
2023-02-08T20:44:31.482Z,102941.88
2023-02-08T20:46:59.413Z,102930.16
2023-02-08T20:49:30.749Z,102947.28
2023-02-08T20:51:59.065Z,102945.53
2023-02-08T20:54:27.047Z,102945.56
2023-02-08T20:56:55.274Z,102952.78
2023-02-08T20:59:24.040Z,102957.31
2023-02-08T21:01:52.246Z,102955.59
2023-02-08T21:04:23.355Z,102954.75
2023-02-08T21:06:53.700Z,102958.41
2023-02-08T21:09:21.918Z,102953.00
2023-02-08T21:11:50.824Z,102946.78
2023-02-08T21:14:21.224Z,102947.69
2023-02-08T21:16:51.373Z,102935.13
2023-02-08T21:19:20.573Z,102940.56
2023-02-08T21:21:53.477Z,102936.97
2023-02-08T21:24:21.452Z,102942.50
2023-02-08T21:26:49.256Z,102939.78
2023-02-08T21:29:17.523Z,102939.81
2023-02-08T21:31:45.592Z,102945.22
2023-02-08T21:34:13.891Z,102947.06
2023-02-08T21:36:41.718Z,102942.63
2023-02-08T21:39:10.951Z,102948.94
2023-02-08T21:41:39.014Z,102949.00
2023-02-08T21:44:08.305Z,102947.25
2023-02-08T21:46:36.500Z,102940.13
2023-02-08T21:49:21.853Z,102939.25
2023-02-08T21:52:07.032Z,102944.75
2023-02-08T21:54:42.867Z,102947.53
2023-02-08T21:57:13.491Z,102943.97
2023-02-08T21:59:41.483Z,102944.00
2023-02-08T22:02:13.456Z,102938.66
2023-02-08T22:04:42.411Z,102940.56
2023-02-08T22:07:10.190Z,102937.00
2023-02-08T22:09:41.580Z,102937.97
2023-02-08T22:12:14.979Z,102934.34
2023-02-08T22:14:42.977Z,102925.41
2023-02-08T22:17:11.328Z,102932.63
2023-02-08T22:19:40.400Z,102930.00
2023-02-08T22:22:09.129Z,102932.72
2023-02-08T22:24:37.737Z,102921.97
2023-02-08T22:27:06.921Z,102916.59
2023-02-08T22:29:34.868Z,102919.38
2023-02-08T22:32:02.747Z,102922.16
2023-02-08T22:34:30.639Z,102924.00
2023-02-08T22:36:58.615Z,102919.56
2023-02-08T22:39:26.518Z,102928.59
2023-02-08T22:41:54.313Z,102925.06
2023-02-08T22:44:23.570Z,102934.13
2023-02-08T22:46:51.692Z,102927.88
2023-02-08T22:49:19.600Z,102925.22
2023-02-08T22:51:47.390Z,102924.31
2023-02-08T22:54:15.263Z,102926.19
2023-02-08T22:56:43.036Z,102930.72
2023-02-08T22:59:11.200Z,102919.06
2023-02-08T23:01:40.614Z,102923.56
2023-02-08T23:04:08.567Z,102920.00
2023-02-08T23:06:36.650Z,102928.16
2023-02-08T23:09:05.306Z,102926.38
2023-02-08T23:11:33.606Z,102921.00
2023-02-08T23:14:01.768Z,102919.22
2023-02-08T23:16:29.684Z,102905.81
2023-02-08T23:18:59.064Z,102906.72
2023-02-08T23:21:26.968Z,102913.03
2023-02-08T23:23:54.859Z,102903.16
2023-02-08T23:26:22.986Z,102910.38
2023-02-08T23:28:52.262Z,102918.47
2023-02-08T23:31:21.434Z,102915.81
2023-02-08T23:33:50.263Z,102919.44
2023-02-08T23:36:22.276Z,102923.06
2023-02-08T23:38:51.286Z,102908.69
2023-02-08T23:41:20.984Z,102911.41
2023-02-08T23:43:50.410Z,102917.75
2023-02-08T23:46:21.101Z,102915.94
2023-02-08T23:48:49.586Z,102907.94
2023-02-08T23:51:21.251Z,102907.97
2023-02-08T23:53:49.770Z,102903.50
2023-02-08T23:56:23.300Z,102898.09
2023-02-08T23:58:54.211Z,102896.41
